sensor_id;sensor_type;location;lat;lon;timestamp;P1;durP1;ratioP1;P2;durP2;ratioP2
25125;SDS011;13106;50.808;5.670;2022-12-13T00:01:29;29.27;;;18.80;;
25125;SDS011;13106;50.808;5.670;2022-12-13T00:03:56;29.10;;;18.52;;
25125;SDS011;13106;50.808;5.670;2022-12-13T00:06:22;28.05;;;17.98;;
25125;SDS011;13106;50.808;5.670;2022-12-13T00:08:48;32.33;;;16.98;;
25125;SDS011;13106;50.808;5.670;2022-12-13T00:11:14;30.05;;;18.00;;
25125;SDS011;13106;50.808;5.670;2022-12-13T00:13:41;30.55;;;17.98;;
25125;SDS011;13106;50.808;5.670;2022-12-13T00:16:09;29.88;;;17.75;;
25125;SDS011;13106;50.808;5.670;2022-12-13T00:18:36;39.22;;;19.73;;
25125;SDS011;13106;50.808;5.670;2022-12-13T00:21:10;35.05;;;21.10;;
25125;SDS011;13106;50.808;5.670;2022-12-13T00:23:37;36.97;;;20.65;;
25125;SDS011;13106;50.808;5.670;2022-12-13T00:26:04;36.28;;;20.45;;
25125;SDS011;13106;50.808;5.670;2022-12-13T00:28:30;33.13;;;19.15;;
25125;SDS011;13106;50.808;5.670;2022-12-13T00:30:57;36.08;;;18.73;;
25125;SDS011;13106;50.808;5.670;2022-12-13T00:33:23;30.60;;;18.42;;
25125;SDS011;13106;50.808;5.670;2022-12-13T00:35:49;31.17;;;18.17;;
25125;SDS011;13106;50.808;5.670;2022-12-13T00:38:15;31.80;;;18.80;;
25125;SDS011;13106;50.808;5.670;2022-12-13T00:40:41;33.10;;;18.33;;
25125;SDS011;13106;50.808;5.670;2022-12-13T00:43:07;33.85;;;18.63;;
25125;SDS011;13106;50.808;5.670;2022-12-13T00:45:33;31.67;;;19.60;;
25125;SDS011;13106;50.808;5.670;2022-12-13T00:47:59;34.63;;;20.33;;
25125;SDS011;13106;50.808;5.670;2022-12-13T00:50:27;28.02;;;18.45;;
25125;SDS011;13106;50.808;5.670;2022-12-13T00:52:53;33.03;;;18.63;;
25125;SDS011;13106;50.808;5.670;2022-12-13T00:55:19;34.70;;;20.83;;
25125;SDS011;13106;50.808;5.670;2022-12-13T00:57:45;34.47;;;20.25;;
25125;SDS011;13106;50.808;5.670;2022-12-13T01:00:11;32.35;;;19.15;;
25125;SDS011;13106;50.808;5.670;2022-12-13T01:02:37;31.40;;;19.25;;
25125;SDS011;13106;50.808;5.670;2022-12-13T01:05:05;31.73;;;19.85;;
25125;SDS011;13106;50.808;5.670;2022-12-13T01:07:32;30.20;;;18.08;;
25125;SDS011;13106;50.808;5.670;2022-12-13T01:09:58;31.15;;;18.98;;
25125;SDS011;13106;50.808;5.670;2022-12-13T01:12:24;32.63;;;21.27;;
25125;SDS011;13106;50.808;5.670;2022-12-13T01:14:50;36.75;;;22.58;;
25125;SDS011;13106;50.808;5.670;2022-12-13T01:17:16;32.72;;;20.95;;
25125;SDS011;13106;50.808;5.670;2022-12-13T01:19:42;38.53;;;22.75;;
25125;SDS011;13106;50.808;5.670;2022-12-13T01:22:08;33.75;;;20.55;;
25125;SDS011;13106;50.808;5.670;2022-12-13T01:24:35;32.15;;;19.17;;
25125;SDS011;13106;50.808;5.670;2022-12-13T01:27:02;30.10;;;20.33;;
25125;SDS011;13106;50.808;5.670;2022-12-13T01:29:28;32.00;;;20.73;;
25125;SDS011;13106;50.808;5.670;2022-12-13T01:31:54;32.97;;;21.20;;
25125;SDS011;13106;50.808;5.670;2022-12-13T01:34:21;36.35;;;21.80;;
25125;SDS011;13106;50.808;5.670;2022-12-13T01:36:47;27.38;;;17.65;;
25125;SDS011;13106;50.808;5.670;2022-12-13T01:39:14;27.38;;;18.95;;
25125;SDS011;13106;50.808;5.670;2022-12-13T01:41:42;29.73;;;18.27;;
25125;SDS011;13106;50.808;5.670;2022-12-13T01:46:53;28.27;;;19.35;;
25125;SDS011;13106;50.808;5.670;2022-12-13T01:49:19;31.00;;;20.30;;
25125;SDS011;13106;50.808;5.670;2022-12-13T01:51:50;31.40;;;18.30;;
25125;SDS011;13106;50.808;5.670;2022-12-13T01:54:18;30.55;;;18.67;;
25125;SDS011;13106;50.808;5.670;2022-12-13T01:56:47;29.95;;;16.80;;
25125;SDS011;13106;50.808;5.670;2022-12-13T01:59:14;26.95;;;16.30;;
25125;SDS011;13106;50.808;5.670;2022-12-13T02:01:41;29.23;;;17.45;;
25125;SDS011;13106;50.808;5.670;2022-12-13T02:04:07;26.95;;;16.48;;
25125;SDS011;13106;50.808;5.670;2022-12-13T02:09:00;29.20;;;16.75;;
25125;SDS011;13106;50.808;5.670;2022-12-13T02:11:27;25.23;;;16.83;;
25125;SDS011;13106;50.808;5.670;2022-12-13T02:13:53;25.38;;;16.00;;
25125;SDS011;13106;50.808;5.670;2022-12-13T02:35:16;27.63;;;16.42;;
25125;SDS011;13106;50.808;5.670;2022-12-13T02:37:50;26.13;;;16.23;;
25125;SDS011;13106;50.808;5.670;2022-12-13T02:40:29;27.88;;;16.17;;
25125;SDS011;13106;50.808;5.670;2022-12-13T02:42:57;23.23;;;14.63;;
25125;SDS011;13106;50.808;5.670;2022-12-13T02:48:26;25.10;;;16.00;;
25125;SDS011;13106;50.808;5.670;2022-12-13T02:50:52;28.45;;;17.45;;
25125;SDS011;13106;50.808;5.670;2022-12-13T02:53:19;26.20;;;17.02;;
25125;SDS011;13106;50.808;5.670;2022-12-13T02:55:46;26.77;;;16.45;;
25125;SDS011;13106;50.808;5.670;2022-12-13T02:58:13;26.73;;;17.33;;
25125;SDS011;13106;50.808;5.670;2022-12-13T03:01:00;25.67;;;16.13;;
25125;SDS011;13106;50.808;5.670;2022-12-13T03:06:07;28.83;;;16.67;;
25125;SDS011;13106;50.808;5.670;2022-12-13T03:11:21;21.45;;;14.77;;
25125;SDS011;13106;50.808;5.670;2022-12-13T03:13:57;24.48;;;16.52;;
25125;SDS011;13106;50.808;5.670;2022-12-13T03:16:40;25.52;;;16.08;;
25125;SDS011;13106;50.808;5.670;2022-12-13T03:19:08;30.10;;;15.13;;
25125;SDS011;13106;50.808;5.670;2022-12-13T03:21:47;25.27;;;15.45;;
25125;SDS011;13106;50.808;5.670;2022-12-13T03:24:18;25.05;;;16.60;;
25125;SDS011;13106;50.808;5.670;2022-12-13T03:26:44;23.77;;;15.27;;
25125;SDS011;13106;50.808;5.670;2022-12-13T03:29:12;26.45;;;15.35;;
25125;SDS011;13106;50.808;5.670;2022-12-13T03:31:38;24.73;;;14.95;;
25125;SDS011;13106;50.808;5.670;2022-12-13T03:34:04;24.17;;;15.57;;
25125;SDS011;13106;50.808;5.670;2022-12-13T03:36:30;26.42;;;16.40;;
25125;SDS011;13106;50.808;5.670;2022-12-13T03:38:56;26.45;;;16.40;;
25125;SDS011;13106;50.808;5.670;2022-12-13T03:41:23;27.50;;;15.40;;
25125;SDS011;13106;50.808;5.670;2022-12-13T03:43:55;26.05;;;14.75;;
25125;SDS011;13106;50.808;5.670;2022-12-13T03:46:21;23.98;;;16.42;;
25125;SDS011;13106;50.808;5.670;2022-12-13T03:48:47;26.10;;;17.15;;
25125;SDS011;13106;50.808;5.670;2022-12-13T03:51:13;26.88;;;15.95;;
25125;SDS011;13106;50.808;5.670;2022-12-13T03:53:39;28.65;;;15.73;;
25125;SDS011;13106;50.808;5.670;2022-12-13T03:56:05;30.88;;;17.40;;
25125;SDS011;13106;50.808;5.670;2022-12-13T03:58:32;29.92;;;18.83;;
25125;SDS011;13106;50.808;5.670;2022-12-13T04:00:59;26.17;;;16.25;;
25125;SDS011;13106;50.808;5.670;2022-12-13T04:03:25;28.02;;;14.85;;
25125;SDS011;13106;50.808;5.670;2022-12-13T04:05:51;26.58;;;16.40;;
25125;SDS011;13106;50.808;5.670;2022-12-13T04:08:17;22.42;;;14.63;;
25125;SDS011;13106;50.808;5.670;2022-12-13T04:10:43;25.13;;;15.70;;
25125;SDS011;13106;50.808;5.670;2022-12-13T04:13:09;25.92;;;16.05;;
25125;SDS011;13106;50.808;5.670;2022-12-13T04:15:54;28.10;;;16.33;;
25125;SDS011;13106;50.808;5.670;2022-12-13T04:18:20;26.40;;;15.85;;
25125;SDS011;13106;50.808;5.670;2022-12-13T04:20:47;23.58;;;15.13;;
25125;SDS011;13106;50.808;5.670;2022-12-13T04:23:13;24.70;;;15.63;;
25125;SDS011;13106;50.808;5.670;2022-12-13T04:25:39;27.15;;;15.27;;
25125;SDS011;13106;50.808;5.670;2022-12-13T04:28:06;27.38;;;15.30;;
25125;SDS011;13106;50.808;5.670;2022-12-13T04:30:32;25.30;;;15.05;;
25125;SDS011;13106;50.808;5.670;2022-12-13T04:32:58;24.50;;;15.73;;
25125;SDS011;13106;50.808;5.670;2022-12-13T04:35:24;28.35;;;15.57;;
25125;SDS011;13106;50.808;5.670;2022-12-13T04:37:50;26.52;;;16.48;;
25125;SDS011;13106;50.808;5.670;2022-12-13T04:40:17;21.80;;;14.40;;
25125;SDS011;13106;50.808;5.670;2022-12-13T04:42:43;23.58;;;15.15;;
25125;SDS011;13106;50.808;5.670;2022-12-13T04:45:12;28.15;;;16.70;;
25125;SDS011;13106;50.808;5.670;2022-12-13T04:47:39;26.60;;;16.23;;
25125;SDS011;13106;50.808;5.670;2022-12-13T04:50:05;28.92;;;16.85;;
25125;SDS011;13106;50.808;5.670;2022-12-13T04:52:31;25.25;;;16.45;;
25125;SDS011;13106;50.808;5.670;2022-12-13T04:54:57;31.27;;;17.23;;
25125;SDS011;13106;50.808;5.670;2022-12-13T04:57:24;29.38;;;16.65;;
25125;SDS011;13106;50.808;5.670;2022-12-13T04:59:50;26.90;;;16.17;;
25125;SDS011;13106;50.808;5.670;2022-12-13T05:02:16;26.13;;;15.88;;
25125;SDS011;13106;50.808;5.670;2022-12-13T05:04:43;28.85;;;17.60;;
25125;SDS011;13106;50.808;5.670;2022-12-13T05:07:09;29.58;;;17.02;;
25125;SDS011;13106;50.808;5.670;2022-12-13T05:09:35;27.42;;;16.90;;
25125;SDS011;13106;50.808;5.670;2022-12-13T05:12:01;27.92;;;18.00;;
25125;SDS011;13106;50.808;5.670;2022-12-13T05:14:30;24.48;;;16.05;;
25125;SDS011;13106;50.808;5.670;2022-12-13T05:16:57;28.55;;;17.77;;
25125;SDS011;13106;50.808;5.670;2022-12-13T05:19:23;30.02;;;18.45;;
25125;SDS011;13106;50.808;5.670;2022-12-13T05:21:49;32.85;;;18.85;;
25125;SDS011;13106;50.808;5.670;2022-12-13T05:24:15;28.35;;;17.95;;
25125;SDS011;13106;50.808;5.670;2022-12-13T05:26:41;36.50;;;19.30;;
25125;SDS011;13106;50.808;5.670;2022-12-13T05:29:07;29.90;;;18.20;;
25125;SDS011;13106;50.808;5.670;2022-12-13T05:31:33;34.35;;;19.77;;
25125;SDS011;13106;50.808;5.670;2022-12-13T05:33:59;33.20;;;19.40;;
25125;SDS011;13106;50.808;5.670;2022-12-13T05:36:26;33.20;;;19.55;;
25125;SDS011;13106;50.808;5.670;2022-12-13T05:38:52;31.75;;;20.08;;
25125;SDS011;13106;50.808;5.670;2022-12-13T05:41:19;28.10;;;18.10;;
25125;SDS011;13106;50.808;5.670;2022-12-13T05:43:46;32.13;;;18.70;;
25125;SDS011;13106;50.808;5.670;2022-12-13T05:46:12;31.92;;;18.33;;
25125;SDS011;13106;50.808;5.670;2022-12-13T05:48:38;31.15;;;18.17;;
25125;SDS011;13106;50.808;5.670;2022-12-13T05:51:04;31.15;;;17.83;;
25125;SDS011;13106;50.808;5.670;2022-12-13T05:53:30;32.58;;;17.25;;
25125;SDS011;13106;50.808;5.670;2022-12-13T05:56:00;29.08;;;16.17;;
25125;SDS011;13106;50.808;5.670;2022-12-13T05:58:26;29.55;;;17.23;;
25125;SDS011;13106;50.808;5.670;2022-12-13T06:00:52;31.92;;;16.45;;
25125;SDS011;13106;50.808;5.670;2022-12-13T06:03:18;26.88;;;15.75;;
25125;SDS011;13106;50.808;5.670;2022-12-13T06:05:44;28.83;;;17.45;;
25125;SDS011;13106;50.808;5.670;2022-12-13T06:08:10;27.58;;;16.85;;
25125;SDS011;13106;50.808;5.670;2022-12-13T06:10:36;29.08;;;16.08;;
25125;SDS011;13106;50.808;5.670;2022-12-13T06:13:03;25.42;;;15.95;;
25125;SDS011;13106;50.808;5.670;2022-12-13T06:15:29;26.90;;;17.52;;
25125;SDS011;13106;50.808;5.670;2022-12-13T06:17:57;29.35;;;17.80;;
25125;SDS011;13106;50.808;5.670;2022-12-13T06:20:23;30.88;;;17.30;;
25125;SDS011;13106;50.808;5.670;2022-12-13T06:22:50;33.67;;;17.15;;
25125;SDS011;13106;50.808;5.670;2022-12-13T06:25:16;31.25;;;18.38;;
25125;SDS011;13106;50.808;5.670;2022-12-13T06:27:42;27.65;;;17.65;;
25125;SDS011;13106;50.808;5.670;2022-12-13T06:30:08;28.08;;;17.25;;
25125;SDS011;13106;50.808;5.670;2022-12-13T06:32:34;33.38;;;18.55;;
25125;SDS011;13106;50.808;5.670;2022-12-13T06:35:00;37.80;;;18.42;;
25125;SDS011;13106;50.808;5.670;2022-12-13T06:37:26;29.88;;;19.58;;
25125;SDS011;13106;50.808;5.670;2022-12-13T06:39:52;36.67;;;18.50;;
25125;SDS011;13106;50.808;5.670;2022-12-13T06:42:18;32.45;;;18.50;;
25125;SDS011;13106;50.808;5.670;2022-12-13T06:44:44;33.30;;;18.65;;
25125;SDS011;13106;50.808;5.670;2022-12-13T06:47:10;30.45;;;17.67;;
25125;SDS011;13106;50.808;5.670;2022-12-13T06:49:37;31.98;;;17.00;;
25125;SDS011;13106;50.808;5.670;2022-12-13T06:52:03;32.45;;;17.70;;
25125;SDS011;13106;50.808;5.670;2022-12-13T06:54:29;31.23;;;18.88;;
25125;SDS011;13106;50.808;5.670;2022-12-13T06:56:55;30.83;;;17.88;;
25125;SDS011;13106;50.808;5.670;2022-12-13T06:59:21;36.03;;;17.88;;
25125;SDS011;13106;50.808;5.670;2022-12-13T07:01:47;31.17;;;18.10;;
25125;SDS011;13106;50.808;5.670;2022-12-13T07:04:13;31.58;;;18.38;;
25125;SDS011;13106;50.808;5.670;2022-12-13T07:06:39;32.63;;;18.33;;
25125;SDS011;13106;50.808;5.670;2022-12-13T07:09:05;31.75;;;18.42;;
25125;SDS011;13106;50.808;5.670;2022-12-13T07:11:31;29.08;;;17.27;;
25125;SDS011;13106;50.808;5.670;2022-12-13T07:13:58;35.90;;;17.88;;
25125;SDS011;13106;50.808;5.670;2022-12-13T07:16:25;37.95;;;19.73;;
25125;SDS011;13106;50.808;5.670;2022-12-13T07:18:54;34.60;;;20.10;;
25125;SDS011;13106;50.808;5.670;2022-12-13T07:21:21;32.75;;;20.42;;
25125;SDS011;13106;50.808;5.670;2022-12-13T07:23:47;36.40;;;18.98;;
25125;SDS011;13106;50.808;5.670;2022-12-13T07:26:14;35.28;;;18.63;;
25125;SDS011;13106;50.808;5.670;2022-12-13T07:28:40;32.30;;;19.40;;
25125;SDS011;13106;50.808;5.670;2022-12-13T07:31:07;34.47;;;18.02;;
25125;SDS011;13106;50.808;5.670;2022-12-13T07:33:33;35.45;;;19.83;;
25125;SDS011;13106;50.808;5.670;2022-12-13T07:36:03;35.03;;;18.67;;
25125;SDS011;13106;50.808;5.670;2022-12-13T07:38:31;35.20;;;19.13;;
25125;SDS011;13106;50.808;5.670;2022-12-13T07:40:57;35.50;;;19.38;;
25125;SDS011;13106;50.808;5.670;2022-12-13T07:43:23;33.58;;;19.23;;
25125;SDS011;13106;50.808;5.670;2022-12-13T07:45:50;40.35;;;20.90;;
25125;SDS011;13106;50.808;5.670;2022-12-13T07:48:16;36.08;;;20.13;;
25125;SDS011;13106;50.808;5.670;2022-12-13T07:50:43;34.30;;;19.98;;
25125;SDS011;13106;50.808;5.670;2022-12-13T07:53:09;41.25;;;21.63;;
25125;SDS011;13106;50.808;5.670;2022-12-13T07:55:35;63.88;;;47.88;;
25125;SDS011;13106;50.808;5.670;2022-12-13T07:58:02;41.90;;;24.40;;
25125;SDS011;13106;50.808;5.670;2022-12-13T08:00:29;44.28;;;24.35;;
25125;SDS011;13106;50.808;5.670;2022-12-13T08:02:55;37.13;;;21.30;;
25125;SDS011;13106;50.808;5.670;2022-12-13T08:05:21;43.70;;;21.67;;
25125;SDS011;13106;50.808;5.670;2022-12-13T08:07:48;33.72;;;20.70;;
25125;SDS011;13106;50.808;5.670;2022-12-13T08:10:14;31.85;;;20.63;;
25125;SDS011;13106;50.808;5.670;2022-12-13T08:12:40;38.40;;;20.80;;
25125;SDS011;13106;50.808;5.670;2022-12-13T08:15:06;40.97;;;21.30;;
25125;SDS011;13106;50.808;5.670;2022-12-13T08:17:33;45.55;;;23.60;;
25125;SDS011;13106;50.808;5.670;2022-12-13T08:19:59;42.17;;;24.15;;
25125;SDS011;13106;50.808;5.670;2022-12-13T08:22:25;41.45;;;22.17;;
25125;SDS011;13106;50.808;5.670;2022-12-13T08:24:51;43.25;;;24.20;;
25125;SDS011;13106;50.808;5.670;2022-12-13T08:27:16;47.97;;;23.65;;
25125;SDS011;13106;50.808;5.670;2022-12-13T08:29:42;42.92;;;23.17;;
25125;SDS011;13106;50.808;5.670;2022-12-13T08:32:10;49.50;;;26.45;;
25125;SDS011;13106;50.808;5.670;2022-12-13T08:34:36;46.30;;;25.10;;
25125;SDS011;13106;50.808;5.670;2022-12-13T08:37:03;53.53;;;25.60;;
25125;SDS011;13106;50.808;5.670;2022-12-13T08:39:33;45.37;;;24.97;;
25125;SDS011;13106;50.808;5.670;2022-12-13T08:42:00;52.95;;;26.05;;
25125;SDS011;13106;50.808;5.670;2022-12-13T08:44:27;47.00;;;25.13;;
25125;SDS011;13106;50.808;5.670;2022-12-13T08:46:53;50.15;;;26.23;;
25125;SDS011;13106;50.808;5.670;2022-12-13T08:49:19;58.45;;;29.92;;
25125;SDS011;13106;50.808;5.670;2022-12-13T08:51:45;53.72;;;30.08;;
25125;SDS011;13106;50.808;5.670;2022-12-13T08:54:11;63.55;;;33.80;;
25125;SDS011;13106;50.808;5.670;2022-12-13T08:56:37;62.53;;;36.70;;
25125;SDS011;13106;50.808;5.670;2022-12-13T08:59:03;55.17;;;30.60;;
25125;SDS011;13106;50.808;5.670;2022-12-13T09:01:29;55.35;;;28.77;;
25125;SDS011;13106;50.808;5.670;2022-12-13T09:03:55;52.00;;;28.00;;
25125;SDS011;13106;50.808;5.670;2022-12-13T09:06:21;55.17;;;26.95;;
25125;SDS011;13106;50.808;5.670;2022-12-13T09:08:47;53.28;;;25.80;;
25125;SDS011;13106;50.808;5.670;2022-12-13T09:11:13;56.40;;;28.42;;
25125;SDS011;13106;50.808;5.670;2022-12-13T09:13:39;49.38;;;25.77;;
25125;SDS011;13106;50.808;5.670;2022-12-13T09:16:12;63.20;;;34.92;;
25125;SDS011;13106;50.808;5.670;2022-12-13T09:18:38;54.95;;;27.90;;
25125;SDS011;13106;50.808;5.670;2022-12-13T09:21:05;49.80;;;27.40;;
25125;SDS011;13106;50.808;5.670;2022-12-13T09:23:31;49.95;;;26.35;;
25125;SDS011;13106;50.808;5.670;2022-12-13T09:25:58;53.25;;;27.60;;
25125;SDS011;13106;50.808;5.670;2022-12-13T09:28:25;51.78;;;28.13;;
25125;SDS011;13106;50.808;5.670;2022-12-13T09:30:51;51.47;;;25.00;;
25125;SDS011;13106;50.808;5.670;2022-12-13T09:33:17;52.00;;;27.17;;
25125;SDS011;13106;50.808;5.670;2022-12-13T09:35:43;49.55;;;25.92;;
25125;SDS011;13106;50.808;5.670;2022-12-13T09:38:09;45.75;;;25.73;;
25125;SDS011;13106;50.808;5.670;2022-12-13T09:40:36;50.70;;;25.75;;
25125;SDS011;13106;50.808;5.670;2022-12-13T09:43:03;52.80;;;25.08;;
25125;SDS011;13106;50.808;5.670;2022-12-13T09:45:29;49.30;;;26.10;;
25125;SDS011;13106;50.808;5.670;2022-12-13T09:47:57;45.65;;;24.92;;
25125;SDS011;13106;50.808;5.670;2022-12-13T09:50:31;48.90;;;25.23;;
25125;SDS011;13106;50.808;5.670;2022-12-13T09:52:59;43.58;;;25.13;;
25125;SDS011;13106;50.808;5.670;2022-12-13T09:57:53;47.05;;;25.58;;
25125;SDS011;13106;50.808;5.670;2022-12-13T10:00:21;44.97;;;24.88;;
25125;SDS011;13106;50.808;5.670;2022-12-13T10:02:50;47.90;;;25.70;;
25125;SDS011;13106;50.808;5.670;2022-12-13T10:05:18;40.75;;;23.73;;
25125;SDS011;13106;50.808;5.670;2022-12-13T10:07:46;42.38;;;23.15;;
25125;SDS011;13106;50.808;5.670;2022-12-13T10:10:12;39.85;;;24.55;;
25125;SDS011;13106;50.808;5.670;2022-12-13T10:12:40;42.95;;;25.10;;
25125;SDS011;13106;50.808;5.670;2022-12-13T10:15:06;43.20;;;24.42;;
25125;SDS011;13106;50.808;5.670;2022-12-13T10:17:35;41.53;;;23.80;;
25125;SDS011;13106;50.808;5.670;2022-12-13T10:20:02;41.75;;;24.55;;
25125;SDS011;13106;50.808;5.670;2022-12-13T10:22:29;42.75;;;24.77;;
25125;SDS011;13106;50.808;5.670;2022-12-13T10:27:42;42.05;;;25.10;;
25125;SDS011;13106;50.808;5.670;2022-12-13T10:33:03;36.72;;;20.85;;
25125;SDS011;13106;50.808;5.670;2022-12-13T10:37:55;41.55;;;26.50;;
25125;SDS011;13106;50.808;5.670;2022-12-13T10:40:31;39.95;;;26.77;;
25125;SDS011;13106;50.808;5.670;2022-12-13T10:43:04;51.92;;;27.67;;
25125;SDS011;13106;50.808;5.670;2022-12-13T10:45:30;44.30;;;28.75;;
25125;SDS011;13106;50.808;5.670;2022-12-13T10:47:56;44.88;;;29.60;;
25125;SDS011;13106;50.808;5.670;2022-12-13T10:50:23;46.03;;;30.45;;
25125;SDS011;13106;50.808;5.670;2022-12-13T10:52:50;43.45;;;27.40;;
25125;SDS011;13106;50.808;5.670;2022-12-13T10:55:27;42.35;;;27.50;;
25125;SDS011;13106;50.808;5.670;2022-12-13T10:57:54;42.67;;;27.52;;
25125;SDS011;13106;50.808;5.670;2022-12-13T11:02:56;48.55;;;29.80;;
25125;SDS011;13106;50.808;5.670;2022-12-13T11:05:27;40.97;;;25.60;;
25125;SDS011;13106;50.808;5.670;2022-12-13T11:07:53;43.72;;;26.85;;
25125;SDS011;13106;50.808;5.670;2022-12-13T11:10:21;41.95;;;25.65;;
25125;SDS011;13106;50.808;5.670;2022-12-13T11:12:48;41.58;;;26.00;;
25125;SDS011;13106;50.808;5.670;2022-12-13T11:15:24;40.67;;;25.30;;
25125;SDS011;13106;50.808;5.670;2022-12-13T11:17:51;36.60;;;23.73;;
25125;SDS011;13106;50.808;5.670;2022-12-13T11:20:18;33.80;;;22.70;;
25125;SDS011;13106;50.808;5.670;2022-12-13T11:22:45;37.58;;;23.05;;
25125;SDS011;13106;50.808;5.670;2022-12-13T11:25:22;33.08;;;20.13;;
25125;SDS011;13106;50.808;5.670;2022-12-13T11:35:53;29.95;;;19.48;;
25125;SDS011;13106;50.808;5.670;2022-12-13T11:38:28;30.60;;;20.23;;
25125;SDS011;13106;50.808;5.670;2022-12-13T11:40:58;34.17;;;20.98;;
25125;SDS011;13106;50.808;5.670;2022-12-13T11:45:52;32.10;;;20.63;;
25125;SDS011;13106;50.808;5.670;2022-12-13T11:50:52;31.83;;;19.35;;
25125;SDS011;13106;50.808;5.670;2022-12-13T12:01:14;27.30;;;17.10;;
25125;SDS011;13106;50.808;5.670;2022-12-13T12:03:44;30.63;;;17.90;;
25125;SDS011;13106;50.808;5.670;2022-12-13T12:06:22;30.73;;;18.58;;
25125;SDS011;13106;50.808;5.670;2022-12-13T12:08:57;29.23;;;19.08;;
25125;SDS011;13106;50.808;5.670;2022-12-13T12:16:34;29.77;;;19.20;;
25125;SDS011;13106;50.808;5.670;2022-12-13T12:19:07;28.98;;;20.05;;
25125;SDS011;13106;50.808;5.670;2022-12-13T12:21:42;29.20;;;19.00;;
25125;SDS011;13106;50.808;5.670;2022-12-13T12:24:21;30.52;;;18.85;;
25125;SDS011;13106;50.808;5.670;2022-12-13T12:29:57;28.88;;;18.58;;
25125;SDS011;13106;50.808;5.670;2022-12-13T12:40:05;30.38;;;18.48;;
25125;SDS011;13106;50.808;5.670;2022-12-13T12:45:17;32.97;;;20.58;;
25125;SDS011;13106;50.808;5.670;2022-12-13T12:53:26;31.65;;;18.70;;
25125;SDS011;13106;50.808;5.670;2022-12-13T12:58:26;28.08;;;19.02;;
25125;SDS011;13106;50.808;5.670;2022-12-13T13:03:40;31.20;;;19.23;;
25125;SDS011;13106;50.808;5.670;2022-12-13T13:06:18;28.95;;;18.10;;
25125;SDS011;13106;50.808;5.670;2022-12-13T13:09:08;32.15;;;18.92;;
25125;SDS011;13106;50.808;5.670;2022-12-13T13:11:33;28.65;;;18.85;;
25125;SDS011;13106;50.808;5.670;2022-12-13T13:14:01;36.83;;;19.83;;
25125;SDS011;13106;50.808;5.670;2022-12-13T13:16:32;33.20;;;19.48;;
25125;SDS011;13106;50.808;5.670;2022-12-13T13:18:59;31.83;;;18.65;;
25125;SDS011;13106;50.808;5.670;2022-12-13T13:21:30;31.30;;;18.75;;
25125;SDS011;13106;50.808;5.670;2022-12-13T13:26:27;31.00;;;18.95;;
25125;SDS011;13106;50.808;5.670;2022-12-13T13:28:53;33.55;;;19.08;;
25125;SDS011;13106;50.808;5.670;2022-12-13T13:31:21;30.17;;;19.55;;
25125;SDS011;13106;50.808;5.670;2022-12-13T13:33:47;28.70;;;18.30;;
25125;SDS011;13106;50.808;5.670;2022-12-13T13:38:58;31.98;;;18.48;;
25125;SDS011;13106;50.808;5.670;2022-12-13T13:41:37;29.00;;;19.48;;
25125;SDS011;13106;50.808;5.670;2022-12-13T13:44:29;30.95;;;19.27;;
25125;SDS011;13106;50.808;5.670;2022-12-13T13:49:34;33.72;;;21.10;;
25125;SDS011;13106;50.808;5.670;2022-12-13T13:57:36;34.97;;;19.83;;
25125;SDS011;13106;50.808;5.670;2022-12-13T14:00:10;39.53;;;19.63;;
25125;SDS011;13106;50.808;5.670;2022-12-13T14:10:24;39.15;;;21.15;;
25125;SDS011;13106;50.808;5.670;2022-12-13T14:21:02;55.75;;;46.97;;
25125;SDS011;13106;50.808;5.670;2022-12-13T14:23:37;39.17;;;23.20;;
25125;SDS011;13106;50.808;5.670;2022-12-13T14:28:56;32.33;;;20.27;;
25125;SDS011;13106;50.808;5.670;2022-12-13T14:31:24;36.78;;;21.58;;
25125;SDS011;13106;50.808;5.670;2022-12-13T14:33:51;32.47;;;21.17;;
25125;SDS011;13106;50.808;5.670;2022-12-13T14:36:24;33.35;;;19.27;;
25125;SDS011;13106;50.808;5.670;2022-12-13T14:38:57;36.13;;;20.52;;
25125;SDS011;13106;50.808;5.670;2022-12-13T14:41:24;34.05;;;20.83;;
25125;SDS011;13106;50.808;5.670;2022-12-13T14:43:50;34.67;;;20.80;;
25125;SDS011;13106;50.808;5.670;2022-12-13T14:46:16;31.90;;;18.40;;
25125;SDS011;13106;50.808;5.670;2022-12-13T14:48:49;38.15;;;20.42;;
25125;SDS011;13106;50.808;5.670;2022-12-13T14:53:56;32.20;;;17.60;;
25125;SDS011;13106;50.808;5.670;2022-12-13T14:56:23;35.05;;;20.42;;
25125;SDS011;13106;50.808;5.670;2022-12-13T14:58:56;35.47;;;21.40;;
25125;SDS011;13106;50.808;5.670;2022-12-13T15:01:35;32.10;;;18.92;;
25125;SDS011;13106;50.808;5.670;2022-12-13T15:06:46;31.35;;;18.90;;
25125;SDS011;13106;50.808;5.670;2022-12-13T15:09:13;28.35;;;18.42;;
25125;SDS011;13106;50.808;5.670;2022-12-13T15:11:40;32.80;;;18.67;;
25125;SDS011;13106;50.808;5.670;2022-12-13T15:14:12;34.40;;;18.52;;
25125;SDS011;13106;50.808;5.670;2022-12-13T15:16:39;32.10;;;18.15;;
25125;SDS011;13106;50.808;5.670;2022-12-13T15:19:18;25.85;;;16.40;;
25125;SDS011;13106;50.808;5.670;2022-12-13T15:21:59;26.95;;;17.40;;
25125;SDS011;13106;50.808;5.670;2022-12-13T15:24:27;30.85;;;18.02;;
25125;SDS011;13106;50.808;5.670;2022-12-13T15:26:55;32.33;;;19.00;;
25125;SDS011;13106;50.808;5.670;2022-12-13T15:29:21;30.33;;;17.35;;
25125;SDS011;13106;50.808;5.670;2022-12-13T15:31:48;30.35;;;16.75;;
25125;SDS011;13106;50.808;5.670;2022-12-13T15:36:54;28.95;;;17.92;;
25125;SDS011;13106;50.808;5.670;2022-12-13T15:39:20;27.95;;;16.23;;
25125;SDS011;13106;50.808;5.670;2022-12-13T15:41:47;30.40;;;18.33;;
25125;SDS011;13106;50.808;5.670;2022-12-13T15:44:25;35.65;;;21.20;;
25125;SDS011;13106;50.808;5.670;2022-12-13T15:46:52;34.45;;;19.10;;
25125;SDS011;13106;50.808;5.670;2022-12-13T15:51:54;30.15;;;18.05;;
25125;SDS011;13106;50.808;5.670;2022-12-13T15:54:21;40.35;;;25.00;;
25125;SDS011;13106;50.808;5.670;2022-12-13T15:57:01;32.05;;;20.80;;
25125;SDS011;13106;50.808;5.670;2022-12-13T15:59:32;31.50;;;18.80;;
25125;SDS011;13106;50.808;5.670;2022-12-13T16:01:58;29.02;;;18.70;;
25125;SDS011;13106;50.808;5.670;2022-12-13T16:04:25;29.83;;;18.00;;
25125;SDS011;13106;50.808;5.670;2022-12-13T16:06:52;29.67;;;17.00;;
25125;SDS011;13106;50.808;5.670;2022-12-13T16:09:20;30.08;;;16.75;;
25125;SDS011;13106;50.808;5.670;2022-12-13T16:11:48;28.95;;;16.35;;
25125;SDS011;13106;50.808;5.670;2022-12-13T16:16:51;32.42;;;18.40;;
25125;SDS011;13106;50.808;5.670;2022-12-13T16:19:18;27.27;;;16.48;;
25125;SDS011;13106;50.808;5.670;2022-12-13T16:21:44;26.80;;;15.43;;
25125;SDS011;13106;50.808;5.670;2022-12-13T16:24:10;30.40;;;17.15;;
25125;SDS011;13106;50.808;5.670;2022-12-13T16:26:36;27.58;;;16.42;;
25125;SDS011;13106;50.808;5.670;2022-12-13T16:29:08;26.10;;;15.73;;
25125;SDS011;13106;50.808;5.670;2022-12-13T16:31:36;29.98;;;17.55;;
25125;SDS011;13106;50.808;5.670;2022-12-13T16:34:02;28.17;;;17.00;;
25125;SDS011;13106;50.808;5.670;2022-12-13T16:36:29;26.13;;;16.10;;
25125;SDS011;13106;50.808;5.670;2022-12-13T16:38:55;26.65;;;17.02;;
25125;SDS011;13106;50.808;5.670;2022-12-13T16:41:21;27.15;;;16.35;;
25125;SDS011;13106;50.808;5.670;2022-12-13T16:43:54;25.08;;;15.35;;
25125;SDS011;13106;50.808;5.670;2022-12-13T16:46:21;24.33;;;14.43;;